Time;durP1;ratioP1;P1;durP2;ratioP2;P2;SDS_P1;SDS_P2;PMS_P1;PMS_P2;Temp;Humidity;BMP_temperature;BMP_pressure;BME280_temperature;BME280_humidity;BME280_pressure;Samples;Min_cycle;Max_cycle;Signal;HPM_P1;HPM_P2
2021/05/10 00:01:41;;;;;;;25.20;4.28;;;;;;;8.32;88.22;97449.00;4946287;28;20381;-78
2021/05/10 00:04:07;;;;;;;23.00;4.25;;;;;;;8.36;88.57;97452.72;4947427;28;20709;-78
2021/05/10 00:06:33;;;;;;;20.52;4.65;;;;;;;8.40;87.95;97448.38;4950953;28;20054;-78
2021/05/10 00:08:59;;;;;;;31.70;4.22;;;;;;;8.46;88.01;97444.56;4954249;28;20035;-78
2021/05/10 00:11:25;;;;;;;20.85;4.50;;;;;;;8.53;87.78;97446.91;4961202;28;20031;-78
2021/05/10 00:13:51;;;;;;;30.08;4.22;;;;;;;8.57;87.73;97444.47;4949324;28;20039;-77
2021/05/10 00:16:18;;;;;;;25.63;4.32;;;;;;;8.59;87.56;97442.31;4941057;28;20045;-77
2021/05/10 00:18:43;;;;;;;29.00;6.38;;;;;;;8.60;87.74;97450.06;4949432;28;20485;-77
2021/05/10 00:21:09;;;;;;;24.45;4.05;;;;;;;8.64;87.32;97448.41;4959906;28;20039;-76
2021/05/10 00:23:35;;;;;;;20.08;3.80;;;;;;;8.65;87.53;97449.22;4951944;28;20137;-77
2021/05/10 00:26:00;;;;;;;18.25;3.92;;;;;;;8.65;87.38;97451.91;4947361;28;20038;-76
2021/05/10 00:28:26;;;;;;;23.08;4.18;;;;;;;8.70;87.28;97448.34;4953824;28;20031;-76
2021/05/10 00:30:52;;;;;;;30.27;4.85;;;;;;;8.75;87.47;97445.59;4963794;28;20031;-77
2021/05/10 00:33:17;;;;;;;29.00;4.88;;;;;;;8.79;87.31;97442.06;4955934;28;20039;-76
2021/05/10 00:35:43;;;;;;;21.70;4.20;;;;;;;8.76;87.23;97437.28;4960134;28;20110;-77
2021/05/10 00:38:09;;;;;;;27.77;5.20;;;;;;;8.78;86.82;97436.97;4949027;28;20034;-76
2021/05/10 00:40:35;;;;;;;15.48;3.85;;;;;;;8.75;87.31;97442.91;4959593;28;20114;-77
2021/05/10 00:43:01;;;;;;;20.30;3.80;;;;;;;8.81;86.94;97436.41;4948427;28;20115;-76
2021/05/10 00:45:27;;;;;;;23.08;4.35;;;;;;;8.86;86.06;97440.91;4963011;28;20032;-76
2021/05/10 00:47:53;;;;;;;17.80;3.63;;;;;;;8.85;87.09;97436.63;4955125;28;20717;-77
2021/05/10 00:50:19;;;;;;;27.13;4.50;;;;;;;8.83;87.31;97452.22;4955734;28;20118;-77
2021/05/10 00:52:46;;;;;;;21.45;3.45;;;;;;;8.79;87.03;97462.72;4950241;28;20039;-76
2021/05/10 00:55:13;;;;;;;28.67;4.47;;;;;;;8.75;87.23;97462.50;4951334;28;20050;-76
2021/05/10 00:58:02;;;;;;;24.05;4.25;;;;;;;8.73;87.73;97453.94;4955178;28;20030;-76
2021/05/10 01:00:31;;;;;;;22.15;4.22;;;;;;;8.71;86.97;97441.88;4948612;28;20058;-76
2021/05/10 01:02:58;;;;;;;30.95;4.60;;;;;;;8.66;87.09;97442.75;4950240;28;20097;-76
2021/05/10 01:05:24;;;;;;;20.75;4.50;;;;;;;8.63;87.46;97441.44;4960945;28;20047;-77
2021/05/10 01:07:50;;;;;;;19.80;4.00;;;;;;;8.61;87.43;97446.28;4952238;28;20030;-77
2021/05/10 01:10:20;;;;;;;24.90;3.95;;;;;;;8.56;87.23;97440.19;4950658;28;20031;-77
2021/05/10 01:12:46;;;;;;;26.67;4.82;;;;;;;8.51;87.27;97442.94;4942288;28;20043;-77
2021/05/10 01:15:16;;;;;;;30.45;4.80;;;;;;;8.51;87.14;97449.09;4947663;28;20043;-77
2021/05/10 01:17:42;;;;;;;25.08;4.50;;;;;;;8.48;87.47;97445.06;4956543;28;20117;-77
2021/05/10 01:20:11;;;;;;;25.75;4.75;;;;;;;8.48;88.29;97436.22;4957392;28;20382;-77
2021/05/10 01:22:45;;;;;;;19.90;4.15;;;;;;;8.47;87.57;97442.66;4946127;28;20640;-77
2021/05/10 01:25:16;;;;;;;25.75;4.68;;;;;;;8.45;87.86;97439.47;4946410;28;20063;-77
2021/05/10 01:27:42;;;;;;;28.10;4.40;;;;;;;8.41;87.24;97439.25;4950742;28;20042;-76
2021/05/10 01:30:11;;;;;;;22.90;4.15;;;;;;;8.37;87.70;97438.22;4937569;28;20038;-77
2021/05/10 01:32:37;;;;;;;21.55;4.15;;;;;;;8.37;87.31;97445.47;4947834;28;20039;-77
2021/05/10 01:35:06;;;;;;;16.92;3.63;;;;;;;8.28;87.25;97438.03;4947374;28;20040;-77
2021/05/10 01:37:32;;;;;;;24.02;4.40;;;;;;;8.32;87.30;97439.06;4954107;28;20038;-77
2021/05/10 01:39:57;;;;;;;23.00;3.90;;;;;;;8.38;87.32;97425.59;4951010;28;20039;-76
2021/05/10 01:42:23;;;;;;;20.83;3.70;;;;;;;8.38;86.24;97422.91;4946205;28;20046;-76
2021/05/10 01:44:49;;;;;;;20.15;4.03;;;;;;;8.39;86.29;97413.78;4948213;28;20043;-76
2021/05/10 01:47:14;;;;;;;22.20;3.63;;;;;;;8.35;86.11;97416.25;4952093;28;20038;-77
2021/05/10 01:49:45;;;;;;;18.52;3.75;;;;;;;8.37;86.05;97422.13;4971314;28;20071;-76
2021/05/10 01:52:12;;;;;;;20.38;3.30;;;;;;;8.35;86.25;97429.66;4965603;28;20046;-76
2021/05/10 01:54:38;;;;;;;31.40;4.28;;;;;;;8.33;86.13;97432.63;4942222;28;20040;-76
2021/05/10 01:57:04;;;;;;;17.90;3.40;;;;;;;8.31;86.62;97429.41;4956729;28;20039;-77
2021/05/10 01:59:30;;;;;;;28.20;4.25;;;;;;;8.30;86.20;97429.72;4945878;28;20027;-77
2021/05/10 02:01:56;;;;;;;19.27;3.13;;;;;;;8.31;86.31;97426.75;4944362;28;20396;-77
2021/05/10 02:04:21;;;;;;;24.73;4.13;;;;;;;8.27;85.96;97436.44;4950516;28;20034;-76
2021/05/10 02:06:47;;;;;;;26.75;3.53;;;;;;;8.29;86.46;97430.81;4956406;28;20484;-77
2021/05/10 02:09:12;;;;;;;21.65;4.22;;;;;;;8.28;86.67;97438.03;4945364;28;20114;-77
2021/05/10 02:11:39;;;;;;;26.98;4.70;;;;;;;8.26;85.76;97434.84;4951109;28;20035;-77
2021/05/10 02:14:04;;;;;;;21.45;4.10;;;;;;;8.31;85.94;97445.50;4947207;28;20486;-77
2021/05/10 02:16:31;;;;;;;24.75;4.47;;;;;;;8.32;86.39;97444.44;4952868;28;20035;-76
2021/05/10 02:18:58;;;;;;;24.63;4.25;;;;;;;8.28;86.05;97443.41;4947876;28;20043;-76
2021/05/10 02:21:29;;;;;;;27.15;4.05;;;;;;;8.26;85.77;97442.09;4960443;28;20109;-76
2021/05/10 02:23:55;;;;;;;28.40;4.57;;;;;;;8.29;86.15;97449.59;4951723;28;20044;-76
2021/05/10 02:26:21;;;;;;;24.02;4.53;;;;;;;8.27;86.12;97443.69;4937120;28;20102;-77
2021/05/10 02:28:47;;;;;;;24.63;4.20;;;;;;;8.26;86.33;97431.38;4945450;28;20039;-77
2021/05/10 02:31:13;;;;;;;26.38;4.40;;;;;;;8.20;86.61;97426.06;4941122;28;20034;-77
2021/05/10 02:33:39;;;;;;;24.75;4.13;;;;;;;8.27;86.21;97428.41;4942109;28;20054;-77
2021/05/10 02:36:05;;;;;;;20.98;3.97;;;;;;;8.24;86.59;97437.00;4945986;28;20032;-77
2021/05/10 02:38:31;;;;;;;19.90;3.78;;;;;;;8.25;86.30;97429.78;4944639;28;20039;-77
2021/05/10 02:40:56;;;;;;;29.15;4.55;;;;;;;8.24;86.18;97428.97;4941664;28;20035;-76
2021/05/10 02:43:25;;;;;;;23.33;3.72;;;;;;;8.29;86.46;97426.22;4950581;28;20110;-77
2021/05/10 02:45:52;;;;;;;21.88;4.57;;;;;;;8.33;85.92;97421.09;4946244;28;20047;-77
2021/05/10 02:48:18;;;;;;;26.65;4.03;;;;;;;8.44;85.84;97427.13;4943765;28;20043;-76
2021/05/10 02:50:44;;;;;;;23.85;4.78;;;;;;;8.43;85.79;97433.59;4946159;28;20509;-77
2021/05/10 02:53:10;;;;;;;33.25;5.70;;;;;;;8.47;85.40;97429.25;4948613;28;20408;-77
2021/05/10 02:55:36;;;;;;;22.73;4.32;;;;;;;8.49;85.58;97419.88;4957695;28;20499;-77
2021/05/10 02:58:02;;;;;;;31.52;5.75;;;;;;;8.51;85.27;97421.47;4941991;28;20473;-77
2021/05/10 03:00:28;;;;;;;30.10;4.70;;;;;;;8.50;85.62;97423.34;4936073;28;20045;-77
2021/05/10 03:02:56;;;;;;;22.48;4.32;;;;;;;8.52;85.41;97421.19;4942011;28;20039;-76
2021/05/10 03:05:23;;;;;;;27.00;4.43;;;;;;;8.52;85.73;97418.50;4942604;28;20031;-76
2021/05/10 03:07:49;;;;;;;24.95;4.90;;;;;;;8.48;85.75;97423.63;4939251;28;20035;-76
2021/05/10 03:10:18;;;;;;;26.25;4.85;;;;;;;8.49;85.12;97419.06;4945515;28;20035;-77
2021/05/10 03:12:44;;;;;;;26.92;5.50;;;;;;;8.40;85.98;97421.56;4937137;28;20060;-77
2021/05/10 03:15:13;;;;;;;24.85;3.85;;;;;;;8.30;85.75;97427.81;4942058;28;20031;-77
2021/05/10 03:17:39;;;;;;;31.15;5.97;;;;;;;8.25;86.08;97430.56;4950821;28;20130;-76
2021/05/10 03:20:08;;;;;;;39.42;6.68;;;;;;;8.19;86.12;97431.69;4949066;28;20035;-76
2021/05/10 03:22:33;;;;;;;34.50;6.03;;;;;;;8.14;86.44;97429.06;4942256;28;20039;-75
2021/05/10 03:24:59;;;;;;;33.80;4.95;;;;;;;8.06;86.81;97427.81;4950341;28;20035;-76
2021/05/10 03:27:25;;;;;;;34.88;6.32;;;;;;;8.02;86.81;97434.81;4943842;28;20044;-77
2021/05/10 03:29:50;;;;;;;25.08;5.43;;;;;;;7.97;87.42;97432.19;4944716;28;20035;-76
2021/05/10 03:32:16;;;;;;;38.97;5.88;;;;;;;7.96;87.01;97438.63;4938906;28;20035;-76
2021/05/10 03:34:43;;;;;;;28.25;5.38;;;;;;;7.99;86.92;97443.44;4944929;28;20045;-76
2021/05/10 03:37:08;;;;;;;24.35;5.25;;;;;;;8.03;86.57;97449.81;4952404;28;20381;-76
2021/05/10 03:39:34;;;;;;;26.90;5.60;;;;;;;8.07;86.94;97448.19;4948486;28;20491;-76
2021/05/10 03:41:59;;;;;;;26.83;4.85;;;;;;;8.13;86.64;97451.59;4944386;28;20106;-76
2021/05/10 03:44:25;;;;;;;33.03;5.93;;;;;;;8.14;86.32;97450.50;4943610;28;20039;-76
2021/05/10 03:46:50;;;;;;;32.25;5.47;;;;;;;8.24;85.85;97446.94;4946811;28;20045;-76
2021/05/10 03:49:16;;;;;;;26.83;5.18;;;;;;;8.18;86.01;97440.81;4940002;28;20031;-77
2021/05/10 03:51:41;;;;;;;26.23;4.93;;;;;;;8.10;85.69;97439.56;4950831;28;20039;-77
2021/05/10 03:54:07;;;;;;;29.10;4.60;;;;;;;8.04;85.91;97436.13;4955001;28;20049;-77
2021/05/10 03:56:32;;;;;;;29.48;4.93;;;;;;;7.99;86.46;97428.13;4949826;28;20098;-77
2021/05/10 03:58:58;;;;;;;28.05;5.03;;;;;;;7.93;86.69;97423.09;4949259;28;20449;-77
2021/05/10 04:01:24;;;;;;;28.58;4.80;;;;;;;7.81;86.65;97420.81;4938258;28;20093;-77
2021/05/10 04:03:59;;;;;;;23.20;5.00;;;;;;;7.78;87.09;97429.41;4952673;28;20094;-77
2021/05/10 04:14:19;;;;;;;;;;;;;;;7.44;88.44;97421.09;4952068;28;20122;-76
2021/05/10 04:16:44;;;;;;;24.42;5.30;;;;;;;7.35;88.12;97416.59;4931032;28;20463;-76
2021/05/10 04:19:10;;;;;;;27.02;5.47;;;;;;;7.36;88.36;97424.34;4951187;28;20135;-76
2021/05/10 04:21:35;;;;;;;26.38;5.70;;;;;;;7.28;88.39;97420.38;4935679;28;20452;-76
2021/05/10 04:24:01;;;;;;;28.05;5.38;;;;;;;7.30;88.23;97431.63;4941638;28;20071;-75
2021/05/10 04:26:27;;;;;;;34.40;4.85;;;;;;;7.34;88.59;97423.84;4938666;28;20031;-76
2021/05/10 04:28:53;;;;;;;41.83;5.00;;;;;;;7.43;88.03;97426.72;4937912;28;20038;-75
2021/05/10 04:31:19;;;;;;;28.80;5.15;;;;;;;7.43;87.67;97426.72;4937392;28;20043;-76
2021/05/10 04:33:44;;;;;;;43.47;5.30;;;;;;;7.46;88.00;97437.69;4948053;28;20035;-76
2021/05/10 04:36:10;;;;;;;32.28;4.88;;;;;;;7.39;87.53;97439.06;4947223;28;20047;-76
2021/05/10 04:38:40;;;;;;;30.27;5.35;;;;;;;7.31;88.30;97443.94;4940991;28;20044;-76
2021/05/10 04:41:05;;;;;;;40.28;5.20;;;;;;;7.37;87.93;97450.06;4939165;28;20039;-76
2021/05/10 04:43:31;;;;;;;32.30;4.75;;;;;;;7.32;88.03;97450.09;4948895;28;20043;-76
2021/05/10 04:45:59;;;;;;;34.13;5.90;;;;;;;7.34;88.35;97447.94;4944953;28;20040;-75
2021/05/10 04:48:29;;;;;;;32.97;5.13;;;;;;;7.41;88.25;97448.44;4934502;28;20036;-77
2021/05/10 04:50:56;;;;;;;36.05;5.45;;;;;;;7.49;88.21;97443.56;4946901;28;20506;-76
2021/05/10 04:53:22;;;;;;;25.52;5.30;;;;;;;7.53;88.05;97445.38;4943096;28;20034;-76
2021/05/10 04:55:48;;;;;;;39.03;5.60;;;;;;;7.54;88.28;97446.97;4943735;28;20043;-75
2021/05/10 04:58:13;;;;;;;28.92;5.25;;;;;;;7.57;88.18;97457.13;4948040;28;20042;-77
2021/05/10 05:00:39;;;;;;;28.75;5.10;;;;;;;7.58;88.47;97453.38;4948087;28;20190;-77
2021/05/10 05:03:05;;;;;;;31.02;5.70;;;;;;;7.63;88.24;97452.56;4941989;28;20750;-76
2021/05/10 05:05:31;;;;;;;48.67;6.35;;;;;;;7.70;88.26;97447.69;4947826;28;20118;-75
2021/05/10 05:07:56;;;;;;;34.40;5.78;;;;;;;7.76;87.49;97453.78;4943912;28;20027;-75
2021/05/10 05:10:22;;;;;;;37.65;5.43;;;;;;;7.82;87.40;97443.84;4957873;28;20492;-78
2021/05/10 05:12:49;;;;;;;38.00;5.85;;;;;;;7.93;87.33;97455.25;4942282;28;20524;-77
2021/05/10 05:15:15;;;;;;;27.05;5.15;;;;;;;8.05;86.85;97455.72;4948888;28;20504;-78
2021/05/10 05:17:41;;;;;;;32.20;5.18;;;;;;;8.14;86.47;97442.47;4959718;28;20591;-77
2021/05/10 05:20:08;;;;;;;44.67;5.45;;;;;;;8.18;86.45;97452.38;4939986;28;20045;-77
2021/05/10 05:22:37;;;;;;;35.50;4.60;;;;;;;8.30;85.81;97451.19;4945189;28;20036;-74
2021/05/10 05:25:05;;;;;;;30.90;5.00;;;;;;;8.44;85.38;97441.38;4950213;28;20035;-73
2021/05/10 05:27:33;;;;;;;37.97;5.38;;;;;;;8.45;85.74;97436.78;4945714;28;20118;-73
2021/05/10 05:29:59;;;;;;;25.48;4.80;;;;;;;8.45;85.08;97432.25;4938420;28;20090;-74
2021/05/10 05:32:25;;;;;;;28.30;4.53;;;;;;;8.45;85.11;97440.28;4934486;28;20433;-75
2021/05/10 05:34:51;;;;;;;33.90;4.53;;;;;;;8.51;85.33;97430.31;4945475;28;20086;-76
2021/05/10 05:37:17;;;;;;;32.60;5.30;;;;;;;8.56;84.65;97440.97;4949517;28;20069;-74
2021/05/10 05:39:43;;;;;;;26.23;4.35;;;;;;;8.55;85.09;97442.06;4942592;28;20126;-74
2021/05/10 05:42:09;;;;;;;22.23;4.18;;;;;;;8.59;84.17;97451.16;4939930;28;20649;-73
2021/05/10 05:44:37;;;;;;;22.17;3.97;;;;;;;8.67;84.38;97441.69;4941901;28;20032;-74
2021/05/10 05:47:04;;;;;;;33.92;4.78;;;;;;;8.63;84.71;97438.75;4946913;28;20035;-74
2021/05/10 05:49:31;;;;;;;25.00;4.25;;;;;;;8.62;84.70;97449.78;4941516;28;20102;-73
2021/05/10 05:51:57;;;;;;;24.65;4.50;;;;;;;8.62;84.33;97452.47;4939045;28;20401;-74
2021/05/10 05:54:23;;;;;;;23.90;4.30;;;;;;;8.65;84.29;97449.22;4945118;28;20116;-74
2021/05/10 05:56:50;;;;;;;33.60;5.00;;;;;;;8.64;83.72;97455.66;4941838;28;20039;-74
2021/05/10 05:59:16;;;;;;;20.95;4.40;;;;;;;8.60;84.63;97460.00;4938942;28;20489;-74
2021/05/10 06:01:42;;;;;;;27.30;4.75;;;;;;;8.65;83.84;97451.91;4938122;28;20075;-76
2021/05/10 06:04:08;;;;;;;31.63;4.90;;;;;;;8.71;83.54;97466.84;4942934;28;20043;-76
2021/05/10 06:06:34;;;;;;;25.73;4.25;;;;;;;8.76;83.97;97464.09;4942620;28;20074;-77
2021/05/10 06:09:04;;;;;;;30.83;4.65;;;;;;;8.88;83.83;97460.22;4940966;28;20458;-74
2021/05/10 06:11:30;;;;;;;25.92;4.10;;;;;;;9.00;82.92;97463.28;4956924;28;20168;-73
2021/05/10 06:13:56;;;;;;;25.17;4.13;;;;;;;9.14;83.10;97468.75;4947821;28;20044;-73
2021/05/10 06:16:21;;;;;;;31.08;5.32;;;;;;;9.27;82.04;97461.84;4944603;28;20028;-74
2021/05/10 06:18:47;;;;;;;30.90;4.53;;;;;;;9.40;81.78;97460.34;4941223;28;20551;-74
2021/05/10 06:21:12;;;;;;;29.80;3.85;;;;;;;9.37;81.42;97472.44;4943295;28;20039;-73
2021/05/10 06:23:39;;;;;;;25.08;4.13;;;;;;;9.35;80.73;97471.16;4946570;28;20185;-77
2021/05/10 06:26:07;;;;;;;25.70;3.60;;;;;;;9.35;81.29;97458.50;4947867;28;20089;-81
2021/05/10 06:28:33;;;;;;;23.75;3.92;;;;;;;9.45;80.89;97462.13;4951255;28;20031;-79
2021/05/10 06:30:58;;;;;;;27.17;5.07;;;;;;;9.69;79.91;97462.06;4946388;28;20031;-75
2021/05/10 06:33:24;;;;;;;35.85;3.80;;;;;;;9.66;79.06;97462.66;4944795;28;20027;-77
2021/05/10 06:35:49;;;;;;;21.90;4.38;;;;;;;9.77;78.98;97460.59;4935134;28;20036;-72
2021/05/10 06:38:15;;;;;;;30.75;3.72;;;;;;;9.77;78.53;97458.69;4942484;28;20074;-72
2021/05/10 06:40:41;;;;;;;29.17;4.03;;;;;;;9.73;78.59;97457.69;4939054;28;20035;-71
2021/05/10 06:43:07;;;;;;;22.65;3.85;;;;;;;9.65;78.88;97452.97;4942953;28;20102;-71
2021/05/10 06:45:33;;;;;;;19.88;3.70;;;;;;;9.72;78.53;97458.78;4941632;28;20038;-74
2021/05/10 06:47:58;;;;;;;23.95;3.72;;;;;;;9.77;79.17;97455.22;4949422;28;20039;-72
2021/05/10 06:50:25;;;;;;;23.00;3.50;;;;;;;9.81;78.49;97459.72;4948410;28;20110;-73
2021/05/10 06:52:50;;;;;;;27.15;4.40;;;;;;;9.85;78.89;97454.56;4939297;28;20044;-72
2021/05/10 06:55:16;;;;;;;23.00;4.43;;;;;;;9.94;78.22;97444.72;4950710;28;20098;-73
2021/05/10 06:57:41;;;;;;;28.35;3.55;;;;;;;10.01;78.58;97457.00;4943790;28;20635;-74
2021/05/10 07:00:08;;;;;;;30.48;4.72;;;;;;;10.11;78.26;97457.59;4947056;28;20496;-74
2021/05/10 07:02:34;;;;;;;22.52;4.15;;;;;;;10.29;77.50;97457.03;4940786;28;20034;-74
2021/05/10 07:05:00;;;;;;;24.15;3.20;;;;;;;10.38;77.34;97447.97;4944281;28;20043;-73
2021/05/10 07:07:26;;;;;;;27.23;3.50;;;;;;;10.40;76.82;97453.09;4948966;28;20035;-73
2021/05/10 07:09:52;;;;;;;23.05;3.85;;;;;;;10.52;75.83;97450.72;4949709;28;20082;-72
2021/05/10 07:12:18;;;;;;;18.33;3.60;;;;;;;10.58;75.40;97459.47;4941582;28;20050;-72
2021/05/10 07:14:44;;;;;;;23.58;3.67;;;;;;;10.57;75.14;97449.81;4939849;28;20035;-72
2021/05/10 07:17:09;;;;;;;24.05;3.65;;;;;;;10.90;74.84;97460.50;4946111;28;20051;-71
2021/05/10 07:19:35;;;;;;;25.92;3.70;;;;;;;11.02;73.98;97462.66;4937265;28;20051;-72
2021/05/10 07:22:01;;;;;;;18.63;3.90;;;;;;;11.17;72.94;97458.84;4937791;28;20023;-73
2021/05/10 07:24:26;;;;;;;25.88;4.07;;;;;;;11.28;71.83;97462.09;4949736;28;20030;-72
2021/05/10 07:26:52;;;;;;;40.75;3.70;;;;;;;11.35;72.72;97467.88;4930831;28;20362;-70
2021/05/10 07:29:17;;;;;;;23.23;3.55;;;;;;;11.60;71.57;97460.34;4939692;28;20035;-72
2021/05/10 07:31:43;;;;;;;16.95;2.88;;;;;;;11.48;71.57;97457.34;4946599;28;20042;-71
2021/05/10 07:34:09;;;;;;;18.85;3.15;;;;;;;11.39;71.17;97463.47;4941614;28;20039;-71
2021/05/10 07:36:35;;;;;;;18.08;3.10;;;;;;;11.47;71.00;97463.84;4942011;28;20039;-72
2021/05/10 07:39:01;;;;;;;21.48;3.58;;;;;;;11.52;70.80;97458.38;4938517;28;20036;-72
2021/05/10 07:41:26;;;;;;;14.70;2.75;;;;;;;11.56;69.98;97459.34;4939908;28;20114;-72
2021/05/10 07:43:52;;;;;;;20.75;3.22;;;;;;;11.68;70.75;97462.31;4941028;28;20152;-71
2021/05/10 07:46:17;;;;;;;21.35;2.75;;;;;;;11.55;71.22;97465.84;4939029;28;20090;-72
2021/05/10 07:48:43;;;;;;;20.42;3.28;;;;;;;11.45;70.31;97466.06;4948869;28;20035;-72
2021/05/10 07:51:09;;;;;;;15.82;3.33;;;;;;;11.49;70.69;97465.16;4935928;28;20574;-71
2021/05/10 07:53:34;;;;;;;23.77;3.25;;;;;;;11.69;70.75;97469.28;4943229;28;20493;-72
2021/05/10 07:56:00;;;;;;;18.50;3.60;;;;;;;11.60;70.83;97464.91;4953644;28;20499;-71
2021/05/10 07:58:27;;;;;;;21.67;3.85;;;;;;;11.76;71.19;97462.66;4942210;28;20450;-71
2021/05/10 08:01:00;;;;;;;21.25;3.80;;;;;;;12.30;69.77;97466.19;4942831;28;20023;-72
2021/05/10 08:03:27;;;;;;;20.10;3.42;;;;;;;12.23;69.24;97456.94;4939919;28;20470;-72
2021/05/10 08:05:53;;;;;;;18.83;3.88;;;;;;;12.10;69.83;97469.41;4945087;28;20118;-72
2021/05/10 08:08:22;;;;;;;19.75;3.28;;;;;;;12.18;69.29;97470.56;4943877;28;20481;-72
2021/05/10 08:10:49;;;;;;;19.73;3.17;;;;;;;12.14;69.29;97483.88;4959549;28;20035;-72
2021/05/10 08:13:16;;;;;;;16.67;2.85;;;;;;;12.37;67.95;97478.44;4943420;28;20036;-72
2021/05/10 08:15:43;;;;;;;15.23;3.00;;;;;;;12.45;66.91;97477.69;4938258;28;20027;-72
2021/05/10 08:18:11;;;;;;;16.50;3.30;;;;;;;12.78;66.15;97473.88;4947380;28;20051;-71
2021/05/10 08:20:41;;;;;;;18.35;2.58;;;;;;;12.92;65.34;97469.13;4952142;28;20061;-71
2021/05/10 08:23:07;;;;;;;13.77;2.28;;;;;;;12.94;63.96;97479.63;4941114;28;20496;-71
2021/05/10 08:25:33;;;;;;;17.25;2.58;;;;;;;12.86;64.36;97470.41;4939788;28;20035;-71
2021/05/10 08:27:59;;;;;;;17.08;2.63;;;;;;;12.76;65.13;97476.88;4949189;28;20027;-72
2021/05/10 08:30:25;;;;;;;11.54;2.52;;;;;;;12.41;63.81;97460.53;4604475;28;10000684;-72
2021/05/10 08:32:51;;;;;;;22.67;2.55;;;;;;;12.42;65.78;97475.63;4950994;28;20039;-71
2021/05/10 08:35:17;;;;;;;18.73;3.47;;;;;;;12.47;65.93;97477.41;4940623;28;20039;-73
2021/05/10 08:37:42;;;;;;;13.93;2.55;;;;;;;12.36;66.36;97480.34;4943968;28;20039;-74
2021/05/10 08:40:09;;;;;;;22.38;2.83;;;;;;;12.51;66.70;97478.38;4947367;28;20046;-72
2021/05/10 08:42:35;;;;;;;12.63;3.28;;;;;;;12.62;65.77;97482.38;4941056;28;20039;-72
2021/05/10 08:45:02;;;;;;;19.13;3.92;;;;;;;12.55;65.52;97476.66;4947139;28;20404;-72
2021/05/10 08:47:35;;;;;;;12.95;2.65;;;;;;;12.41;63.90;97482.94;4945827;28;20574;-71
2021/05/10 08:50:03;;;;;;;21.52;3.80;;;;;;;12.34;64.81;97473.69;4943646;28;20035;-75
2021/05/10 08:52:29;;;;;;;10.63;2.40;;;;;;;12.18;65.74;97479.47;4945473;28;20036;-73
2021/05/10 08:54:55;;;;;;;13.63;2.72;;;;;;;12.21;65.55;97486.94;4945605;28;20047;-70
2021/05/10 08:57:20;;;;;;;12.80;2.58;;;;;;;12.05;65.93;97491.13;4962619;28;20511;-76
2021/05/10 08:59:46;;;;;;;15.07;2.78;;;;;;;12.20;65.80;97492.63;4948947;28;20503;-76
2021/05/10 09:02:12;;;;;;;21.08;2.88;;;;;;;12.17;65.46;97499.47;4947260;28;20433;-75
2021/05/10 09:04:40;;;;;;;13.60;2.90;;;;;;;12.23;65.78;97502.81;4942031;28;20048;-75
2021/05/10 09:07:11;;;;;;;15.52;2.58;;;;;;;12.14;65.21;97505.47;4949934;28;20480;-76
2021/05/10 09:09:54;;;;;;;12.68;2.80;;;;;;;12.11;66.19;97509.56;4950454;28;20620;-76
2021/05/10 09:12:22;;;;;;;20.90;3.60;;;;;;;12.26;66.24;97524.59;4949614;28;20063;-76
2021/05/10 09:14:48;;;;;;;17.98;3.60;;;;;;;12.38;65.76;97524.06;4943692;28;20200;-76
2021/05/10 09:17:15;;;;;;;14.73;3.28;;;;;;;12.33;64.98;97520.66;4947746;28;20520;-76
2021/05/10 09:19:49;;;;;;;10.00;2.22;;;;;;;12.30;65.36;97522.88;4949520;28;20500;-76
2021/05/10 09:22:15;;;;;;;18.80;3.30;;;;;;;12.29;65.97;97510.50;4956193;28;20038;-76
2021/05/10 09:24:52;;;;;;;14.13;2.90;;;;;;;12.41;66.13;97519.91;4953151;28;20043;-76
2021/05/10 09:27:21;;;;;;;17.75;3.65;;;;;;;12.11;67.29;97528.47;4953127;28;20042;-76
2021/05/10 09:29:49;;;;;;;18.95;3.65;;;;;;;12.00;70.55;97529.81;4953729;28;20138;-77
2021/05/10 09:32:28;;;;;;;18.02;2.90;;;;;;;11.68;71.93;97532.41;4950566;28;20039;-76
2021/05/10 09:35:18;;;;;;;14.65;2.75;;;;;;;11.65;72.96;97537.59;4951696;28;20130;-77
2021/05/10 09:37:44;;;;;;;17.20;2.85;;;;;;;11.66;71.97;97534.59;4951139;28;20383;-76
2021/05/10 09:40:12;;;;;;;15.88;3.13;;;;;;;11.70;71.76;97526.69;4949263;28;20035;-76
2021/05/10 09:42:48;;;;;;;17.10;2.85;;;;;;;11.51;70.82;97534.94;4945400;28;20887;-76
2021/05/10 09:45:35;;;;;;;16.08;2.75;;;;;;;11.51;71.60;97545.72;4951373;28;20166;-75
2021/05/10 09:48:06;;;;;;;22.02;3.30;;;;;;;11.48;71.38;97538.22;4950099;28;20031;-75
2021/05/10 09:50:52;;;;;;;24.63;3.03;;;;;;;11.52;71.35;97539.25;4951334;28;20073;-75
2021/05/10 09:53:38;;;;;;;15.90;2.20;;;;;;;11.70;72.95;97538.28;4948326;28;20481;-75
2021/05/10 09:56:07;;;;;;;13.82;2.45;;;;;;;11.93;71.80;97542.91;4962135;28;20114;-73
2021/05/10 09:58:46;;;;;;;16.77;2.85;;;;;;;12.28;69.71;97537.78;4940402;28;20035;-75
2021/05/10 10:01:13;;;;;;;19.95;2.65;;;;;;;12.39;68.32;97531.03;4946783;28;20039;-74
2021/05/10 10:03:40;;;;;;;14.65;2.28;;;;;;;12.53;68.36;97544.44;4938841;28;20040;-74
2021/05/10 10:06:08;;;;;;;9.57;1.85;;;;;;;12.66;66.74;97547.38;4934174;28;20036;-75
2021/05/10 10:08:35;;;;;;;17.23;2.50;;;;;;;12.64;66.12;97542.28;4945232;28;20047;-74
2021/05/10 10:11:03;;;;;;;16.95;2.38;;;;;;;12.69;64.34;97550.25;4957101;28;20027;-74
2021/05/10 10:13:29;;;;;;;8.80;1.42;;;;;;;12.64;62.98;97553.09;4957109;28;20058;-75
2021/05/10 10:15:56;;;;;;;14.88;2.25;;;;;;;12.41;64.41;97550.44;4945831;28;20598;-74
2021/05/10 10:18:25;;;;;;;7.82;1.70;;;;;;;12.42;65.14;97553.91;4949209;28;20036;-73
2021/05/10 10:20:53;;;;;;;12.13;1.88;;;;;;;12.47;66.05;97555.69;4941978;28;20043;-74
2021/05/10 10:23:22;;;;;;;10.55;1.92;;;;;;;12.66;65.62;97544.66;4951659;28;20035;-73
2021/05/10 10:25:50;;;;;;;8.57;2.08;;;;;;;12.93;65.22;97542.88;4944967;28;20393;-72
2021/05/10 10:28:20;;;;;;;14.43;2.60;;;;;;;13.15;63.81;97542.78;4944157;28;20051;-72
2021/05/10 10:30:51;;;;;;;9.90;1.77;;;;;;;13.27;64.73;97549.53;4946653;28;20093;-72
2021/05/10 10:33:47;;;;;;;12.02;2.60;;;;;;;13.21;63.83;97550.75;4940378;28;20114;-72
2021/05/10 10:36:24;;;;;;;8.35;1.52;;;;;;;13.03;62.30;97556.91;4936680;28;20129;-72
2021/05/10 10:39:08;;;;;;;17.77;2.60;;;;;;;12.76;63.76;97570.63;4944974;28;20050;-72
2021/05/10 10:42:02;;;;;;;14.95;2.03;;;;;;;12.46;69.98;97605.41;4945772;28;20031;-71
2021/05/10 10:44:49;;;;;;;20.23;2.10;;;;;;;11.30;77.97;97629.69;4946544;28;20028;-69
2021/05/10 10:47:43;;;;;;;21.30;2.33;;;;;;;10.39;82.21;97616.44;4953331;28;20031;-70
2021/05/10 10:50:10;;;;;;;10.90;2.23;;;;;;;10.17;84.39;97602.75;4938177;28;20772;-70
2021/05/10 10:52:47;;;;;;;10.90;1.77;;;;;;;10.13;84.59;97597.19;4947778;28;20289;-70
2021/05/10 10:55:18;;;;;;;11.93;1.88;;;;;;;10.11;83.81;97594.78;4950108;28;20030;-71
2021/05/10 10:57:45;;;;;;;11.00;1.90;;;;;;;10.34;83.78;97583.41;4943692;28;20026;-72
2021/05/10 11:00:17;;;;;;;5.72;1.35;;;;;;;10.51;83.52;97583.69;4945318;28;20118;-72
2021/05/10 11:02:49;;;;;;;11.15;1.73;;;;;;;10.64;82.44;97587.53;4946267;28;20035;-73
2021/05/10 11:05:19;;;;;;;14.00;1.77;;;;;;;10.76;82.12;97588.94;4939177;28;20039;-78
2021/05/10 11:07:56;;;;;;;10.45;1.80;;;;;;;10.79;81.67;97589.13;4938341;28;20036;-76
2021/05/10 11:10:55;;;;;;;15.90;2.17;;;;;;;10.94;80.95;97584.56;4951825;28;20113;-77
2021/05/10 11:13:27;;;;;;;17.00;2.08;;;;;;;10.85;81.74;97587.16;4938490;28;20142;-74
2021/05/10 11:16:01;;;;;;;11.57;1.90;;;;;;;11.03;82.05;97588.16;4935480;28;20058;-75
2021/05/10 11:18:56;;;;;;;9.80;2.13;;;;;;;11.31;84.86;97590.84;4942160;28;20400;-75
2021/05/10 11:21:37;;;;;;;7.25;1.83;;;;;;;11.60;83.00;97586.25;4943274;28;20074;-75
2021/05/10 11:24:05;;;;;;;12.20;1.85;;;;;;;11.67;81.71;97587.44;4949149;28;20515;-75
2021/05/10 11:26:35;;;;;;;8.13;1.80;;;;;;;11.77;81.86;97585.63;4950023;28;20513;-75
2021/05/10 11:29:01;;;;;;;10.02;1.77;;;;;;;11.88;79.73;97580.78;4946984;28;20439;-74
2021/05/10 11:31:36;;;;;;;8.82;2.78;;;;;;;11.86;75.38;97576.47;4946247;28;20027;-75
2021/05/10 11:34:05;;;;;;;8.77;2.33;;;;;;;12.07;76.49;97583.34;4947883;28;20035;-75
2021/05/10 11:36:32;;;;;;;12.38;2.08;;;;;;;12.24;77.78;97588.06;4952448;28;20035;-75
2021/05/10 11:39:03;;;;;;;9.02;1.80;;;;;;;12.49;81.04;97591.28;4948372;28;20031;-75
2021/05/10 11:41:29;;;;;;;11.63;2.03;;;;;;;12.66;74.16;97602.19;4948232;28;20035;-75
2021/05/10 11:43:58;;;;;;;12.27;2.33;;;;;;;12.46;73.99;97586.50;4950025;28;20046;-75